createdAt,value
2019-03-02T01:08:18.208Z,166.95
2019-03-02T01:14:57.324Z,187.22
2019-03-02T01:17:30.762Z,193.28
2019-03-02T01:19:59.212Z,186.35
2019-03-02T01:22:31.264Z,182.05
2019-03-02T01:25:04.010Z,182.70
2019-03-02T01:27:36.883Z,180.18
2019-03-02T01:30:16.504Z,188.10
2019-03-02T01:32:48.706Z,195.57
2019-03-02T01:35:21.723Z,192.45
2019-03-02T01:37:51.958Z,173.38
2019-03-02T01:40:23.016Z,185.45
2019-03-02T01:43:01.941Z,187.27
2019-03-02T01:45:34.900Z,197.28
2019-03-02T01:48:18.870Z,182.27
2019-03-02T01:50:51.214Z,179.78
2019-03-02T01:53:26.372Z,183.10
2019-03-02T01:55:56.489Z,186.28
2019-03-02T01:58:37.074Z,162.72
2019-03-02T02:01:11.260Z,175.00
2019-03-02T02:04:00.273Z,188.20
2019-03-02T02:06:31.372Z,165.73
2019-03-02T02:09:05.596Z,181.47
2019-03-02T02:11:35.704Z,168.62
2019-03-02T02:14:08.432Z,171.82
2019-03-02T02:16:41.842Z,159.10
2019-03-02T02:19:13.024Z,161.68
2019-03-02T02:21:45.080Z,184.75
2019-03-02T02:24:25.797Z,143.00
2019-03-02T02:27:04.756Z,179.87
2019-03-02T02:29:35.928Z,152.12
2019-03-02T02:32:06.024Z,163.05
2019-03-02T02:34:36.114Z,170.87
2019-03-02T02:37:09.227Z,189.80
2019-03-02T02:39:39.315Z,164.35
2019-03-02T02:42:10.420Z,162.90
2019-03-02T02:44:41.434Z,155.55
2019-03-02T02:47:12.639Z,147.35
2019-03-02T02:49:44.370Z,138.77
2019-03-02T02:52:15.148Z,141.25
2019-03-02T02:54:47.230Z,137.57
2019-03-02T02:57:19.325Z,149.23
2019-03-02T02:59:49.444Z,144.00
2019-03-02T03:02:19.532Z,140.35
2019-03-02T03:04:57.653Z,142.72
2019-03-02T03:07:30.940Z,138.68
2019-03-02T03:10:02.703Z,133.67
2019-03-02T03:12:32.856Z,132.60
2019-03-02T03:15:15.053Z,117.50
2019-03-02T03:17:45.175Z,118.05
2019-03-02T03:20:15.629Z,99.58
2019-03-02T03:22:47.395Z,77.17
2019-03-02T03:25:19.778Z,78.62
2019-03-02T03:28:08.027Z,78.85
2019-03-02T03:30:40.006Z,94.58
2019-03-02T03:33:13.417Z,81.35
2019-03-02T03:35:43.545Z,92.78
2019-03-02T03:38:17.733Z,101.10
2019-03-02T03:40:53.773Z,91.70
2019-03-02T03:43:24.833Z,107.03
2019-03-02T03:45:56.880Z,91.45
2019-03-02T03:48:27.934Z,82.35
2019-03-02T03:50:58.026Z,97.47
2019-03-02T03:53:33.909Z,95.03
2019-03-02T03:56:05.497Z,103.85
2019-03-02T03:58:44.468Z,100.80
2019-03-02T04:01:17.834Z,109.12
2019-03-02T04:03:47.100Z,106.40
2019-03-02T04:06:18.137Z,120.77
2019-03-02T04:08:48.228Z,100.60
2019-03-02T04:11:18.379Z,103.30
2019-03-02T04:13:49.429Z,120.17
2019-03-02T04:16:23.742Z,112.72
2019-03-02T04:18:58.111Z,100.35
2019-03-02T04:21:33.918Z,112.03
2019-03-02T04:24:04.228Z,115.65
2019-03-02T04:26:36.428Z,96.20
2019-03-02T04:29:15.033Z,119.17
2019-03-02T04:31:48.947Z,121.97
2019-03-02T04:34:23.963Z,118.97
2019-03-02T04:36:57.600Z,120.50
2019-03-02T04:39:33.484Z,132.22
2019-03-02T04:42:04.568Z,148.78
2019-03-02T04:44:34.643Z,127.70
2019-03-02T04:47:04.736Z,134.25
2019-03-02T04:49:40.660Z,130.63
2019-03-02T04:52:15.417Z,135.12
2019-03-02T04:54:45.658Z,124.00
2019-03-02T04:57:21.596Z,119.55
2019-03-02T04:59:56.652Z,137.45
2019-03-02T05:02:25.758Z,132.57
2019-03-02T05:05:01.080Z,133.00
2019-03-02T05:07:31.161Z,125.90
2019-03-02T05:10:01.260Z,122.05
2019-03-02T05:12:31.360Z,118.37
2019-03-02T05:15:01.484Z,121.97
2019-03-02T05:17:31.576Z,124.27
2019-03-02T05:20:04.904Z,135.55
2019-03-02T05:22:34.371Z,137.18
2019-03-02T05:25:06.365Z,138.50
2019-03-02T05:27:36.476Z,124.97
2019-03-02T05:30:19.185Z,109.65
2019-03-02T05:32:52.678Z,116.37
2019-03-02T05:35:23.924Z,128.85
2019-03-02T05:37:56.924Z,113.83
2019-03-02T05:40:27.760Z,123.78
2019-03-02T05:42:59.705Z,127.82
2019-03-02T05:45:29.792Z,112.03
2019-03-02T05:48:04.881Z,122.75
2019-03-02T05:50:32.818Z,112.03
2019-03-02T05:53:02.913Z,115.15
2019-03-02T05:55:32.988Z,112.57
2019-03-02T05:58:03.093Z,116.50
2019-03-02T06:00:33.841Z,103.65
2019-03-02T06:03:04.976Z,101.70
2019-03-02T06:05:35.084Z,109.52
2019-03-02T06:08:05.200Z,104.30
2019-03-02T06:10:35.297Z,111.00
2019-03-02T06:13:05.383Z,120.00
2019-03-02T06:15:39.709Z,104.35
2019-03-02T06:18:11.321Z,106.37
2019-03-02T06:20:42.332Z,101.87
2019-03-02T06:23:13.957Z,110.65
2019-03-02T06:25:44.041Z,115.45
2019-03-02T06:28:14.132Z,92.92
2019-03-02T06:30:44.967Z,90.12
2019-03-02T06:33:35.925Z,100.95
2019-03-02T06:36:08.785Z,103.00
2019-03-02T06:38:39.777Z,93.37
2019-03-02T06:41:11.856Z,84.65
2019-03-02T06:43:41.941Z,85.05
2019-03-02T06:46:12.046Z,90.85
2019-03-02T06:48:48.892Z,89.77
2019-03-02T06:51:18.980Z,78.62
2019-03-02T06:53:56.877Z,87.35
2019-03-02T06:56:28.024Z,71.37
2019-03-02T06:59:07.177Z,90.80
2019-03-02T07:01:42.189Z,88.07
2019-03-02T07:04:13.189Z,78.47
2019-03-02T07:06:46.512Z,79.70
2019-03-02T07:09:15.085Z,86.35
2019-03-02T07:11:51.166Z,91.65
2019-03-02T07:14:21.249Z,78.62
2019-03-02T07:16:52.190Z,91.08
2019-03-02T07:19:24.752Z,95.30
2019-03-02T07:21:57.674Z,67.15
2019-03-02T07:24:29.401Z,80.85
2019-03-02T07:27:00.596Z,79.20
2019-03-02T07:29:32.058Z,77.60
2019-03-02T07:32:02.189Z,76.07
2019-03-02T07:34:32.277Z,82.27
2019-03-02T07:37:05.693Z,82.10
2019-03-02T07:39:45.714Z,87.45
2019-03-02T07:42:16.881Z,81.82
2019-03-02T07:44:58.555Z,87.92
2019-03-02T07:47:31.030Z,82.50
2019-03-02T07:50:01.117Z,72.03
2019-03-02T07:52:31.201Z,89.25
2019-03-02T07:55:01.294Z,81.95
2019-03-02T07:57:31.429Z,78.87
2019-03-02T08:00:02.226Z,77.65
2019-03-02T08:02:33.298Z,72.87
2019-03-02T08:05:03.387Z,84.37
2019-03-02T08:07:34.141Z,74.35
2019-03-02T08:10:08.708Z,76.77
2019-03-02T08:12:38.943Z,74.07
2019-03-02T08:15:24.216Z,70.70
2019-03-02T08:17:54.248Z,75.90
2019-03-02T08:20:26.160Z,77.60
2019-03-02T08:22:56.392Z,78.15
2019-03-02T08:25:38.776Z,76.70
2019-03-02T08:28:15.617Z,80.28
2019-03-02T08:30:45.800Z,75.78
2019-03-02T08:33:26.028Z,77.53
2019-03-02T08:35:56.141Z,87.62
2019-03-02T08:38:26.248Z,73.90
2019-03-02T08:41:01.734Z,75.62
2019-03-02T08:43:31.945Z,73.22
2019-03-02T08:46:07.419Z,63.02
2019-03-02T08:48:41.052Z,75.42
2019-03-02T08:51:14.181Z,69.97
2019-03-02T08:53:44.401Z,73.00
2019-03-02T08:56:14.494Z,70.40
2019-03-02T08:58:45.508Z,64.45
2019-03-02T09:01:18.634Z,64.37
2019-03-02T09:03:47.633Z,66.57
2019-03-02T09:06:17.753Z,64.70
2019-03-02T09:08:47.837Z,63.98
2019-03-02T09:11:18.033Z,61.65
2019-03-02T09:13:49.089Z,54.50
2019-03-02T09:16:19.171Z,62.88
2019-03-02T09:18:50.292Z,53.50
2019-03-02T09:21:20.397Z,62.67
2019-03-02T09:23:51.775Z,54.50
2019-03-02T09:26:22.136Z,58.42
2019-03-02T09:28:56.230Z,54.00
2019-03-02T09:31:27.305Z,55.15
2019-03-02T09:34:01.113Z,54.38
2019-03-02T09:36:31.274Z,53.50
2019-03-02T09:39:02.228Z,46.55
2019-03-02T09:41:32.333Z,53.42
2019-03-02T09:44:03.429Z,52.65
2019-03-02T09:46:52.853Z,53.10
2019-03-02T09:49:28.745Z,54.42
2019-03-02T09:51:58.965Z,55.05
2019-03-02T09:54:30.946Z,55.12
2019-03-02T09:57:01.048Z,48.00
2019-03-02T09:59:31.130Z,52.62
2019-03-02T10:02:01.225Z,47.67
2019-03-02T10:04:31.326Z,45.98
2019-03-02T10:07:03.357Z,44.45
2019-03-02T10:09:34.426Z,44.45
2019-03-02T10:12:04.575Z,44.80
2019-03-02T10:14:35.176Z,42.23
2019-03-02T10:17:05.525Z,41.37
2019-03-02T10:19:42.462Z,48.42
2019-03-02T10:22:12.545Z,50.23
2019-03-02T10:24:42.881Z,47.00
2019-03-02T10:27:12.997Z,49.25
2019-03-02T10:29:48.148Z,45.20
2019-03-02T10:32:19.549Z,51.20
2019-03-02T10:34:51.816Z,43.23
2019-03-02T10:37:25.954Z,49.53
2019-03-02T10:40:11.670Z,57.17
2019-03-02T10:42:43.759Z,53.45
2019-03-02T10:45:19.397Z,46.05
2019-03-02T10:47:49.565Z,52.23
2019-03-02T10:50:27.366Z,51.20
2019-03-02T10:52:58.476Z,51.90
2019-03-02T10:55:28.573Z,55.45
2019-03-02T10:58:02.265Z,50.43
2019-03-02T11:00:39.448Z,55.83
2019-03-02T11:03:12.885Z,40.70
2019-03-02T11:05:47.466Z,44.42
2019-03-02T11:08:37.644Z,50.88
2019-03-02T11:11:19.789Z,52.38
2019-03-02T11:13:57.481Z,49.60
2019-03-02T11:16:29.209Z,46.83
2019-03-02T11:19:17.842Z,53.45
2019-03-02T11:22:05.905Z,54.42
2019-03-02T11:24:47.125Z,48.08
2019-03-02T11:27:27.716Z,45.85
2019-03-02T11:30:02.246Z,50.10
2019-03-02T11:32:52.639Z,43.92
2019-03-02T11:35:24.469Z,43.70
2019-03-02T11:38:02.869Z,43.92
2019-03-02T11:40:41.045Z,39.75
2019-03-02T11:43:28.908Z,39.55
2019-03-02T11:46:06.386Z,36.50
2019-03-02T11:48:38.152Z,43.40
2019-03-02T11:51:19.264Z,40.98
2019-03-02T11:53:56.917Z,41.23
2019-03-02T11:56:35.106Z,42.27
2019-03-02T11:59:09.382Z,45.50
2019-03-02T12:01:46.840Z,42.27
2019-03-02T12:04:18.591Z,39.30
2019-03-02T12:06:59.340Z,45.33
2019-03-02T12:09:32.132Z,41.95
2019-03-02T12:12:09.693Z,38.40
2019-03-02T12:14:57.792Z,42.08
2019-03-02T12:17:30.460Z,46.20
2019-03-02T12:20:08.948Z,47.13
2019-03-02T12:22:40.960Z,47.50
2019-03-02T12:25:16.888Z,51.05
2019-03-02T12:27:49.550Z,45.03
2019-03-02T12:30:37.365Z,52.45
2019-03-02T12:33:22.129Z,52.93
2019-03-02T12:35:54.096Z,48.78
2019-03-02T12:38:28.568Z,46.70
2019-03-02T12:41:04.029Z,45.50
2019-03-02T12:43:50.005Z,47.38
2019-03-02T12:46:33.377Z,41.15
2019-03-02T12:49:06.944Z,43.08
2019-03-02T12:51:59.539Z,56.30
2019-03-02T12:54:31.273Z,47.50
2019-03-02T12:57:08.585Z,41.73
2019-03-02T12:59:49.149Z,41.90
2019-03-02T13:02:26.310Z,34.40
2019-03-02T13:05:09.389Z,39.35
2019-03-02T13:07:41.392Z,41.15
2019-03-02T13:10:21.588Z,33.70
2019-03-02T13:13:05.072Z,36.65
2019-03-02T13:15:50.629Z,38.48
2019-03-02T13:18:33.030Z,36.70
2019-03-02T13:21:04.769Z,42.25
2019-03-02T13:23:52.937Z,33.85
2019-03-02T13:26:45.705Z,33.23
2019-03-02T13:29:23.257Z,40.67
2019-03-02T13:32:09.519Z,33.42
2019-03-02T13:34:43.809Z,39.13
2019-03-02T13:37:28.526Z,42.43
2019-03-02T13:40:11.848Z,37.85
2019-03-02T13:42:57.377Z,54.80
2019-03-02T13:45:34.029Z,35.68
2019-03-02T13:48:22.177Z,39.88
2019-03-02T13:51:11.621Z,34.63
2019-03-02T13:54:09.389Z,32.70
2019-03-02T13:56:44.204Z,51.60
2019-03-02T13:59:34.096Z,60.12
2019-03-02T14:02:15.712Z,42.85
2019-03-02T14:04:56.789Z,37.67
2019-03-02T14:07:31.313Z,40.23
2019-03-02T14:10:01.942Z,41.53
2019-03-02T14:12:50.789Z,35.75
2019-03-02T14:15:35.304Z,41.65
2019-03-02T14:18:07.029Z,41.20
2019-03-02T14:20:47.761Z,41.63
2019-03-02T14:23:34.160Z,37.48
2019-03-02T14:26:07.904Z,44.38
2019-03-02T14:28:42.852Z,38.85
2019-03-02T14:31:25.593Z,35.43
2019-03-02T14:34:11.852Z,44.67
2019-03-02T14:36:48.893Z,40.83
2019-03-02T14:39:21.447Z,40.12
2019-03-02T14:42:12.096Z,38.35
2019-03-02T14:45:06.244Z,42.65
2019-03-02T14:47:38.056Z,40.10
2019-03-02T14:50:23.784Z,39.60
2019-03-02T14:53:06.191Z,37.08
2019-03-02T14:55:49.289Z,37.42
2019-03-02T14:58:29.861Z,33.73
2019-03-02T15:01:19.562Z,41.60
2019-03-02T15:04:07.642Z,43.83
2019-03-02T15:06:55.481Z,37.55
2019-03-02T15:09:33.545Z,41.28
2019-03-02T15:12:05.353Z,38.67
2019-03-02T15:14:42.531Z,43.78
2019-03-02T15:17:20.365Z,41.20
2019-03-02T15:19:57.792Z,48.45
2019-03-02T15:22:29.638Z,46.33
2019-03-02T15:25:04.058Z,41.15
2019-03-02T15:27:36.725Z,40.08
2019-03-02T15:30:27.788Z,41.30
2019-03-02T15:33:15.504Z,42.30
2019-03-02T15:35:54.025Z,37.40
2019-03-02T15:38:36.271Z,40.48
2019-03-02T15:41:27.020Z,43.00
2019-03-02T15:44:00.126Z,41.13
2019-03-02T15:46:35.987Z,50.23
2019-03-02T15:49:11.713Z,44.63
2019-03-02T15:51:49.624Z,43.80
2019-03-02T15:54:37.301Z,41.23
2019-03-02T15:57:09.118Z,50.40
2019-03-02T15:59:48.512Z,36.05
2019-03-02T16:02:20.266Z,41.00
2019-03-02T16:04:54.908Z,39.65
2019-03-02T16:07:38.712Z,41.23
2019-03-02T16:10:24.333Z,44.20
2019-03-02T16:13:07.970Z,34.30
2019-03-02T16:16:11.666Z,35.83
2019-03-02T16:18:43.721Z,35.60
2019-03-02T16:21:19.131Z,38.10
2019-03-02T16:24:02.634Z,33.98
2019-03-02T16:26:39.080Z,44.05
2019-03-02T16:29:14.993Z,41.92
2019-03-02T16:31:46.112Z,38.02
2019-03-02T16:34:17.885Z,37.90
2019-03-02T16:36:50.554Z,37.85
2019-03-02T16:39:26.255Z,44.83
2019-03-02T16:42:07.120Z,36.13
2019-03-02T16:44:47.245Z,38.60
2019-03-02T16:47:19.033Z,40.45
2019-03-02T16:49:50.824Z,38.90
2019-03-02T16:52:26.661Z,34.80
2019-03-02T16:55:09.489Z,40.33
2019-03-02T16:57:55.700Z,40.58
2019-03-02T17:00:27.790Z,38.23
2019-03-02T17:03:17.534Z,39.80
2019-03-02T17:06:09.301Z,37.33
2019-03-02T17:08:46.573Z,38.63
2019-03-02T17:11:22.542Z,42.33
2019-03-02T17:13:57.045Z,37.20
2019-03-02T17:16:32.049Z,45.78
2019-03-02T17:19:10.155Z,39.38
2019-03-02T17:21:47.339Z,41.88
2019-03-02T17:24:30.917Z,35.48
2019-03-02T17:27:03.611Z,37.88
2019-03-02T17:29:44.945Z,31.35
2019-03-02T17:32:28.453Z,38.63
2019-03-02T17:35:03.064Z,39.48
2019-03-02T17:37:37.878Z,39.58
2019-03-02T17:40:19.914Z,38.83
2019-03-02T17:43:03.742Z,38.92
2019-03-02T17:45:38.845Z,40.48
2019-03-02T17:48:22.804Z,36.75
2019-03-02T17:51:13.177Z,39.30
2019-03-02T17:53:45.992Z,41.77
2019-03-02T17:56:22.874Z,41.68
2019-03-02T17:58:58.245Z,40.67
2019-03-02T18:01:44.981Z,38.05
2019-03-02T18:04:20.455Z,45.90
2019-03-02T18:07:01.225Z,44.88
2019-03-02T18:09:35.028Z,47.95
2019-03-02T18:12:29.471Z,42.60
2019-03-02T18:15:00.832Z,42.90
2019-03-02T18:17:47.689Z,50.30
2019-03-02T18:20:20.953Z,43.87
2019-03-02T18:22:54.141Z,46.70
2019-03-02T18:25:24.277Z,47.67
2019-03-02T18:27:54.577Z,52.10
2019-03-02T18:30:25.710Z,44.58
2019-03-02T18:32:57.493Z,43.30
2019-03-02T18:35:27.640Z,49.65
2019-03-02T18:37:58.737Z,47.15
2019-03-02T18:40:28.961Z,48.15
2019-03-02T18:43:04.172Z,45.00
2019-03-02T18:45:39.655Z,48.73
2019-03-02T18:48:14.942Z,44.35
2019-03-02T18:50:58.517Z,42.62
2019-03-02T18:53:38.639Z,46.15
2019-03-02T18:56:10.717Z,45.03
2019-03-02T18:58:43.822Z,46.90
2019-03-02T19:01:14.801Z,43.78
2019-03-02T19:03:44.891Z,45.50
2019-03-02T19:06:15.905Z,45.48
2019-03-02T19:08:47.298Z,43.38
2019-03-02T19:11:19.067Z,41.20
2019-03-02T19:13:49.637Z,41.45
2019-03-02T19:16:21.945Z,43.83
2019-03-02T19:18:53.083Z,54.40
2019-03-02T19:21:24.113Z,46.88
2019-03-02T19:23:54.211Z,42.90
2019-03-02T19:26:27.333Z,41.98
2019-03-02T19:28:59.426Z,39.65
2019-03-02T19:31:32.864Z,42.98
2019-03-02T19:34:06.991Z,43.92
2019-03-02T19:36:44.736Z,38.42
2019-03-02T19:39:21.276Z,42.33
2019-03-02T19:41:51.512Z,45.80
2019-03-02T19:44:40.672Z,46.25
2019-03-02T19:47:16.681Z,38.83
2019-03-02T19:49:46.769Z,45.43
2019-03-02T19:52:16.882Z,41.90
2019-03-02T19:54:47.961Z,51.05
2019-03-02T19:57:18.729Z,46.30
2019-03-02T19:59:49.749Z,44.08
2019-03-02T20:02:19.881Z,37.85
2019-03-02T20:04:50.200Z,41.65
2019-03-02T20:07:21.229Z,40.58
2019-03-02T20:09:53.758Z,37.83
2019-03-02T20:12:24.845Z,44.95
2019-03-02T20:14:57.260Z,49.27
2019-03-02T20:17:28.681Z,43.60
2019-03-02T20:19:58.857Z,44.08
2019-03-02T20:22:29.917Z,44.18
2019-03-02T20:25:00.009Z,36.80
2019-03-02T20:27:30.098Z,37.45
2019-03-02T20:30:03.274Z,38.48
2019-03-02T20:32:33.388Z,44.15
2019-03-02T20:35:06.429Z,37.40
2019-03-02T20:37:36.909Z,40.25
2019-03-02T20:40:14.917Z,39.27
2019-03-02T20:42:45.881Z,46.88
2019-03-02T20:45:20.386Z,40.03
2019-03-02T20:47:50.478Z,39.55
2019-03-02T20:50:25.113Z,37.70
2019-03-02T20:52:55.206Z,36.33
2019-03-02T20:55:25.543Z,37.28
2019-03-02T20:57:56.561Z,39.38
2019-03-02T21:00:33.809Z,42.33
2019-03-02T21:03:04.885Z,39.83
2019-03-02T21:05:36.094Z,36.48
2019-03-02T21:08:07.424Z,42.65
2019-03-02T21:10:37.720Z,39.73
2019-03-02T21:13:12.998Z,37.63
2019-03-02T21:15:47.761Z,36.85
2019-03-02T21:18:19.299Z,39.23
2019-03-02T21:20:49.476Z,37.45
2019-03-02T21:23:20.441Z,41.37
2019-03-02T21:25:50.537Z,35.60
2019-03-02T21:28:21.412Z,34.23
2019-03-02T21:30:51.498Z,31.85
2019-03-02T21:33:21.596Z,32.90
2019-03-02T21:35:51.958Z,36.70
2019-03-02T21:38:30.156Z,42.35
2019-03-02T21:41:01.161Z,32.73
2019-03-02T21:43:31.267Z,29.40
2019-03-02T21:46:01.369Z,33.08
2019-03-02T21:48:31.645Z,28.95
2019-03-02T21:51:07.514Z,35.92
2019-03-02T21:53:43.257Z,29.27
2019-03-02T21:56:13.346Z,30.97
2019-03-02T21:58:43.434Z,31.82
2019-03-02T22:01:13.516Z,32.13
2019-03-02T22:03:44.612Z,28.90
2019-03-02T22:06:15.648Z,31.07
2019-03-02T22:08:52.556Z,29.42
2019-03-02T22:11:22.698Z,25.43
2019-03-02T22:13:54.721Z,32.08
2019-03-02T22:16:27.694Z,28.40
2019-03-02T22:18:58.792Z,29.92
2019-03-02T22:21:31.438Z,24.25
2019-03-02T22:24:01.649Z,26.48
2019-03-02T22:26:32.728Z,28.67
2019-03-02T22:29:03.817Z,27.80
2019-03-02T22:31:35.849Z,30.82
2019-03-02T22:34:05.941Z,21.90
2019-03-02T22:36:36.034Z,20.80
2019-03-02T22:39:07.654Z,20.15
2019-03-02T22:41:42.701Z,21.23
2019-03-02T22:44:12.793Z,20.55
2019-03-02T22:46:42.888Z,19.37
2019-03-02T22:49:12.993Z,18.92
2019-03-02T22:51:43.096Z,18.35
2019-03-02T22:54:14.149Z,19.67
2019-03-02T22:56:54.222Z,16.35
2019-03-02T22:59:41.310Z,18.73
2019-03-02T23:02:19.212Z,20.68
2019-03-02T23:04:50.513Z,23.47
2019-03-02T23:07:20.593Z,15.93
2019-03-02T23:09:50.684Z,16.80
2019-03-02T23:12:22.747Z,17.65
2019-03-02T23:14:58.556Z,15.05
2019-03-02T23:17:33.446Z,11.70
2019-03-02T23:20:06.404Z,15.45
2019-03-02T23:22:40.526Z,12.40
2019-03-02T23:25:16.396Z,13.03
2019-03-02T23:27:50.297Z,11.73
2019-03-02T23:30:28.113Z,9.85
2019-03-02T23:32:59.096Z,14.55
2019-03-02T23:35:29.204Z,13.53
2019-03-02T23:38:02.463Z,15.80
2019-03-02T23:40:32.593Z,17.48
2019-03-02T23:43:02.756Z,13.25
2019-03-02T23:45:42.604Z,14.20
2019-03-02T23:48:14.688Z,15.18
2019-03-02T23:50:44.844Z,12.85
2019-03-02T23:53:14.917Z,6.90
2019-03-02T23:55:44.988Z,9.68
2019-03-02T23:58:15.170Z,9.73
